sensor_id;sensor_type;location;lat;lon;timestamp;pressure;altitude;pressure_sealevel;temperature;humidity
27958;BME280;15295;42.658;23.374;2022-10-16T00:02:09;95199.94;;;15.60;50.25
27958;BME280;15295;42.658;23.374;2022-10-16T00:04:35;95221.84;;;15.70;50.23
27958;BME280;15295;42.658;23.374;2022-10-16T00:07:17;95242.94;;;15.80;50.57
27958;BME280;15295;42.658;23.374;2022-10-16T00:10:07;95232.84;;;15.70;50.14
27958;BME280;15295;42.658;23.374;2022-10-16T00:12:33;95242.63;;;15.75;50.25
27958;BME280;15295;42.658;23.374;2022-10-16T00:14:58;95207.97;;;15.47;50.40
27958;BME280;15295;42.658;23.374;2022-10-16T00:19:53;95225.94;;;15.59;49.80
27958;BME280;15295;42.658;23.374;2022-10-16T00:22:22;95243.13;;;15.66;49.76
27958;BME280;15295;42.658;23.374;2022-10-16T00:24:54;95250.22;;;15.67;49.73
27958;BME280;15295;42.658;23.374;2022-10-16T00:27:20;95211.63;;;15.37;49.92
27958;BME280;15295;42.658;23.374;2022-10-16T00:29:51;95248.88;;;15.49;50.05
27958;BME280;15295;42.658;23.374;2022-10-16T00:32:19;95220.00;;;15.26;50.17
27958;BME280;15295;42.658;23.374;2022-10-16T00:34:46;95231.03;;;15.26;50.15
27958;BME280;15295;42.658;23.374;2022-10-16T00:37:12;95261.13;;;15.44;50.30
27958;BME280;15295;42.658;23.374;2022-10-16T00:39:42;95242.84;;;15.23;50.01
27958;BME280;15295;42.658;23.374;2022-10-16T00:42:17;95268.72;;;15.33;50.04
27958;BME280;15295;42.658;23.374;2022-10-16T00:45:06;95263.22;;;15.29;50.13
27958;BME280;15295;42.658;23.374;2022-10-16T00:48:18;95254.69;;;15.20;50.20
27958;BME280;15295;42.658;23.374;2022-10-16T00:50:44;95258.63;;;15.19;50.16
27958;BME280;15295;42.658;23.374;2022-10-16T00:53:17;95241.81;;;15.10;50.22
27958;BME280;15295;42.658;23.374;2022-10-16T00:56:10;95255.09;;;15.19;50.12
27958;BME280;15295;42.658;23.374;2022-10-16T00:58:40;95254.03;;;15.09;50.24
27958;BME280;15295;42.658;23.374;2022-10-16T01:01:06;95252.09;;;15.06;50.09
27958;BME280;15295;42.658;23.374;2022-10-16T01:03:40;95234.94;;;14.92;50.25
27958;BME280;15295;42.658;23.374;2022-10-16T01:06:31;95244.84;;;14.86;51.20
27958;BME280;15295;42.658;23.374;2022-10-16T01:09:47;95269.44;;;15.00;51.22
27958;BME280;15295;42.658;23.374;2022-10-16T01:12:58;95241.78;;;14.77;51.19
27958;BME280;15295;42.658;23.374;2022-10-16T01:19:12;95231.69;;;14.63;52.02
27958;BME280;15295;42.658;23.374;2022-10-16T01:21:50;95241.34;;;14.78;52.25
27958;BME280;15295;42.658;23.374;2022-10-16T01:24:46;95262.78;;;14.97;52.08
27958;BME280;15295;42.658;23.374;2022-10-16T01:27:37;95258.06;;;14.98;52.25
27958;BME280;15295;42.658;23.374;2022-10-16T01:30:21;95216.69;;;14.67;52.05
27958;BME280;15295;42.658;23.374;2022-10-16T01:33:15;95232.13;;;14.58;52.55
27958;BME280;15295;42.658;23.374;2022-10-16T01:36:18;95250.44;;;14.75;52.39
27958;BME280;15295;42.658;23.374;2022-10-16T01:39:01;95252.09;;;14.65;51.93
27958;BME280;15295;42.658;23.374;2022-10-16T01:41:53;95218.81;;;14.53;51.58
27958;BME280;15295;42.658;23.374;2022-10-16T01:45:13;95254.88;;;14.62;51.19
27958;BME280;15295;42.658;23.374;2022-10-16T01:48:17;95260.72;;;14.67;51.18
27958;BME280;15295;42.658;23.374;2022-10-16T01:56:51;95274.56;;;14.57;51.21
27958;BME280;15295;42.658;23.374;2022-10-16T02:00:04;95258.97;;;14.43;50.81
27958;BME280;15295;42.658;23.374;2022-10-16T02:02:44;95203.88;;;14.03;50.70
27958;BME280;15295;42.658;23.374;2022-10-16T02:08:15;95277.81;;;14.41;50.76
27958;BME280;15295;42.658;23.374;2022-10-16T02:16:44;95277.13;;;14.27;51.09
27958;BME280;15295;42.658;23.374;2022-10-16T02:22:25;95283.78;;;14.33;50.78
27958;BME280;15295;42.658;23.374;2022-10-16T02:25:37;95261.16;;;14.11;51.39
27958;BME280;15295;42.658;23.374;2022-10-16T02:28:24;95267.31;;;14.26;50.84
27958;BME280;15295;42.658;23.374;2022-10-16T02:31:48;95254.81;;;14.18;50.93
27958;BME280;15295;42.658;23.374;2022-10-16T02:34:22;95266.56;;;14.22;50.84
27958;BME280;15295;42.658;23.374;2022-10-16T02:37:14;95297.94;;;14.35;50.81
27958;BME280;15295;42.658;23.374;2022-10-16T02:40:22;95224.78;;;13.86;51.00
27958;BME280;15295;42.658;23.374;2022-10-16T02:43:05;95286.56;;;14.22;51.12
27958;BME280;15295;42.658;23.374;2022-10-16T02:45:44;95278.41;;;14.12;50.89
27958;BME280;15295;42.658;23.374;2022-10-16T02:48:35;95268.97;;;14.13;50.93
27958;BME280;15295;42.658;23.374;2022-10-16T02:51:30;95297.19;;;14.20;50.88
27958;BME280;15295;42.658;23.374;2022-10-16T02:54:28;95300.31;;;14.26;50.99
27958;BME280;15295;42.658;23.374;2022-10-16T02:57:10;95276.03;;;14.14;50.93
27958;BME280;15295;42.658;23.374;2022-10-16T02:59:44;95301.84;;;14.34;50.74
27958;BME280;15295;42.658;23.374;2022-10-16T03:03:07;95292.16;;;14.12;50.45
27958;BME280;15295;42.658;23.374;2022-10-16T03:06:03;95251.63;;;13.61;51.16
27958;BME280;15295;42.658;23.374;2022-10-16T03:08:36;95287.66;;;13.77;51.21
27958;BME280;15295;42.658;23.374;2022-10-16T03:17:17;95300.72;;;13.48;53.01
27958;BME280;15295;42.658;23.374;2022-10-16T03:20:24;95288.53;;;13.53;52.65
27958;BME280;15295;42.658;23.374;2022-10-16T03:23:13;95252.22;;;13.03;53.57
27958;BME280;15295;42.658;23.374;2022-10-16T03:25:55;95327.75;;;13.57;53.24
27958;BME280;15295;42.658;23.374;2022-10-16T03:28:57;95332.50;;;13.49;53.42
27958;BME280;15295;42.658;23.374;2022-10-16T03:31:27;95263.97;;;12.96;53.67
27958;BME280;15295;42.658;23.374;2022-10-16T03:34:13;95288.28;;;12.94;54.58
27958;BME280;15295;42.658;23.374;2022-10-16T03:37:15;95275.75;;;12.90;54.59
27958;BME280;15295;42.658;23.374;2022-10-16T03:43:26;95246.84;;;12.47;55.31
27958;BME280;15295;42.658;23.374;2022-10-16T03:46:25;95286.34;;;12.84;54.55
27958;BME280;15295;42.658;23.374;2022-10-16T03:49:33;95282.03;;;12.87;54.32
27958;BME280;15295;42.658;23.374;2022-10-16T03:52:26;95253.09;;;12.61;54.21
27958;BME280;15295;42.658;23.374;2022-10-16T03:55:07;95273.03;;;12.76;54.22
27958;BME280;15295;42.658;23.374;2022-10-16T03:57:52;95286.72;;;12.90;54.19
27958;BME280;15295;42.658;23.374;2022-10-16T04:00:25;95260.91;;;12.73;54.10
27958;BME280;15295;42.658;23.374;2022-10-16T04:02:56;95271.84;;;12.84;54.19
27958;BME280;15295;42.658;23.374;2022-10-16T04:05:52;95301.63;;;13.17;54.00
27958;BME280;15295;42.658;23.374;2022-10-16T04:08:47;95249.50;;;12.89;53.67
27958;BME280;15295;42.658;23.374;2022-10-16T04:14:32;95292.19;;;13.18;53.15
27958;BME280;15295;42.658;23.374;2022-10-16T04:17:10;95309.81;;;13.28;53.19
27958;BME280;15295;42.658;23.374;2022-10-16T04:19:56;95322.69;;;13.41;53.36
27958;BME280;15295;42.658;23.374;2022-10-16T04:23:16;95325.88;;;13.36;53.53
27958;BME280;15295;42.658;23.374;2022-10-16T04:26:03;95278.09;;;13.05;53.48
27958;BME280;15295;42.658;23.374;2022-10-16T04:28:51;95312.97;;;13.19;53.68
27958;BME280;15295;42.658;23.374;2022-10-16T04:31:21;95310.22;;;13.23;53.88
27958;BME280;15295;42.658;23.374;2022-10-16T04:34:09;95334.47;;;13.42;53.58
27958;BME280;15295;42.658;23.374;2022-10-16T04:37:29;95319.22;;;13.23;53.21
27958;BME280;15295;42.658;23.374;2022-10-16T04:43:30;95325.88;;;13.22;52.57
27958;BME280;15295;42.658;23.374;2022-10-16T04:46:23;95319.25;;;13.09;52.51
27958;BME280;15295;42.658;23.374;2022-10-16T04:53:17;95350.19;;;13.27;52.89
27958;BME280;15295;42.658;23.374;2022-10-16T04:56:10;95284.78;;;12.87;52.69
27958;BME280;15295;42.658;23.374;2022-10-16T04:59:03;95338.44;;;13.20;52.53
27958;BME280;15295;42.658;23.374;2022-10-16T05:02:03;95360.38;;;13.27;52.36
27958;BME280;15295;42.658;23.374;2022-10-16T05:05:20;95342.78;;;13.13;52.38
27958;BME280;15295;42.658;23.374;2022-10-16T05:08:29;95346.28;;;13.21;52.78
27958;BME280;15295;42.658;23.374;2022-10-16T05:11:02;95359.59;;;13.33;53.00
27958;BME280;15295;42.658;23.374;2022-10-16T05:13:37;95370.56;;;13.44;52.68
27958;BME280;15295;42.658;23.374;2022-10-16T05:16:28;95354.88;;;13.44;52.61
27958;BME280;15295;42.658;23.374;2022-10-16T05:19:06;95353.28;;;13.47;52.42
27958;BME280;15295;42.658;23.374;2022-10-16T05:28:12;95343.06;;;13.51;51.91
27958;BME280;15295;42.658;23.374;2022-10-16T05:31:20;95388.06;;;13.88;52.14
27958;BME280;15295;42.658;23.374;2022-10-16T05:34:06;95344.59;;;13.62;51.73
27958;BME280;15295;42.658;23.374;2022-10-16T05:36:53;95385.31;;;13.88;51.82
27958;BME280;15295;42.658;23.374;2022-10-16T05:40:03;95364.56;;;13.73;51.36
27958;BME280;15295;42.658;23.374;2022-10-16T05:49:10;95390.44;;;13.83;51.54
27958;BME280;15295;42.658;23.374;2022-10-16T05:52:03;95358.38;;;13.55;51.83
27958;BME280;15295;42.658;23.374;2022-10-16T05:54:36;95343.50;;;13.42;51.96
27958;BME280;15295;42.658;23.374;2022-10-16T05:58:06;95394.75;;;13.84;51.83
27958;BME280;15295;42.658;23.374;2022-10-16T06:01:06;95381.84;;;13.74;51.59
27958;BME280;15295;42.658;23.374;2022-10-16T06:07:00;95420.63;;;14.01;51.71
27958;BME280;15295;42.658;23.374;2022-10-16T06:10:14;95419.03;;;14.07;51.48
27958;BME280;15295;42.658;23.374;2022-10-16T06:15:47;95407.63;;;14.05;51.34
27958;BME280;15295;42.658;23.374;2022-10-16T06:18:32;95433.47;;;14.21;51.47
27958;BME280;15295;42.658;23.374;2022-10-16T06:21:46;95429.53;;;14.26;51.30
27958;BME280;15295;42.658;23.374;2022-10-16T06:27:19;95420.50;;;14.32;51.35
27958;BME280;15295;42.658;23.374;2022-10-16T06:30:29;95439.59;;;14.57;50.98
27958;BME280;15295;42.658;23.374;2022-10-16T06:33:10;95418.84;;;14.49;51.12
27958;BME280;15295;42.658;23.374;2022-10-16T06:41:43;95448.66;;;15.12;50.19
27958;BME280;15295;42.658;23.374;2022-10-16T06:44:11;95452.97;;;15.17;49.87
27958;BME280;15295;42.658;23.374;2022-10-16T06:46:37;95452.59;;;15.15;49.56
27958;BME280;15295;42.658;23.374;2022-10-16T06:49:26;95423.59;;;15.00;49.57
27958;BME280;15295;42.658;23.374;2022-10-16T06:52:21;95416.06;;;15.07;49.37
27958;BME280;15295;42.658;23.374;2022-10-16T06:54:50;95425.78;;;15.22;49.27
27958;BME280;15295;42.658;23.374;2022-10-16T06:57:16;95462.34;;;15.71;49.38
27958;BME280;15295;42.658;23.374;2022-10-16T06:59:43;95468.63;;;16.12;48.99
27958;BME280;15295;42.658;23.374;2022-10-16T07:02:12;95410.59;;;16.23;48.16
27958;BME280;15295;42.658;23.374;2022-10-16T07:04:58;95472.50;;;17.09;46.40
27958;BME280;15295;42.658;23.374;2022-10-16T07:07:59;95451.00;;;17.46;46.38
27958;BME280;15295;42.658;23.374;2022-10-16T07:11:08;95441.69;;;17.83;44.12
27958;BME280;15295;42.658;23.374;2022-10-16T07:14:00;95471.38;;;18.41;43.13
27958;BME280;15295;42.658;23.374;2022-10-16T07:16:35;95481.84;;;18.73;42.67
27958;BME280;15295;42.658;23.374;2022-10-16T07:19:14;95482.13;;;19.31;42.86
27958;BME280;15295;42.658;23.374;2022-10-16T07:21:45;95465.25;;;19.57;41.54
27958;BME280;15295;42.658;23.374;2022-10-16T07:24:28;95458.03;;;19.92;39.55
27958;BME280;15295;42.658;23.374;2022-10-16T07:27:01;95479.56;;;20.33;39.49
27958;BME280;15295;42.658;23.374;2022-10-16T07:29:47;95485.69;;;20.69;38.90
27958;BME280;15295;42.658;23.374;2022-10-16T07:32:12;95471.28;;;20.74;38.75
27958;BME280;15295;42.658;23.374;2022-10-16T07:34:39;95469.66;;;21.02;38.05
27958;BME280;15295;42.658;23.374;2022-10-16T07:37:04;95474.56;;;21.10;37.85
27958;BME280;15295;42.658;23.374;2022-10-16T07:39:35;95494.03;;;21.48;36.51
27958;BME280;15295;42.658;23.374;2022-10-16T07:42:39;95472.91;;;21.50;36.55
27958;BME280;15295;42.658;23.374;2022-10-16T07:45:58;95440.53;;;21.44;35.75
27958;BME280;15295;42.658;23.374;2022-10-16T08:29:44;95477.81;;;24.51;30.55
27958;BME280;15295;42.658;23.374;2022-10-16T08:32:10;95486.69;;;24.59;30.43
27958;BME280;15295;42.658;23.374;2022-10-16T08:34:35;95492.13;;;24.63;30.65
27958;BME280;15295;42.658;23.374;2022-10-16T08:37:01;95484.69;;;24.87;30.14
27958;BME280;15295;42.658;23.374;2022-10-16T08:39:28;95498.59;;;25.14;29.78
27958;BME280;15295;42.658;23.374;2022-10-16T08:51:05;95496.91;;;26.00;28.13
27958;BME280;15295;42.658;23.374;2022-10-16T08:53:40;95498.22;;;26.37;27.69
27958;BME280;15295;42.658;23.374;2022-10-16T08:56:11;95501.44;;;26.68;26.39
27958;BME280;15295;42.658;23.374;2022-10-16T09:10:47;95504.50;;;26.94;25.33
27958;BME280;15295;42.658;23.374;2022-10-16T09:14:11;95485.22;;;26.72;25.58
27958;BME280;15295;42.658;23.374;2022-10-16T09:16:58;95484.88;;;26.94;25.64
27958;BME280;15295;42.658;23.374;2022-10-16T09:19:56;95485.53;;;27.18;24.90
27958;BME280;15295;42.658;23.374;2022-10-16T09:22:42;95451.78;;;26.98;24.71
27958;BME280;15295;42.658;23.374;2022-10-16T09:25:48;95449.06;;;27.18;24.42
27958;BME280;15295;42.658;23.374;2022-10-16T09:28:28;95452.44;;;27.22;24.29
27958;BME280;15295;42.658;23.374;2022-10-16T09:31:15;95492.41;;;27.61;24.26
27958;BME280;15295;42.658;23.374;2022-10-16T09:39:04;95472.50;;;27.15;24.16
27958;BME280;15295;42.658;23.374;2022-10-16T09:41:37;95504.72;;;27.49;24.04
27958;BME280;15295;42.658;23.374;2022-10-16T09:44:21;95469.34;;;27.72;24.28
27958;BME280;15295;42.658;23.374;2022-10-16T09:46:48;95494.59;;;28.21;23.50
27958;BME280;15295;42.658;23.374;2022-10-16T09:49:24;95487.94;;;28.39;23.37
27958;BME280;15295;42.658;23.374;2022-10-16T10:04:55;95431.25;;;27.85;22.51
27958;BME280;15295;42.658;23.374;2022-10-16T10:07:39;95448.09;;;28.00;23.19
27958;BME280;15295;42.658;23.374;2022-10-16T10:10:40;95425.69;;;27.91;22.75
27958;BME280;15295;42.658;23.374;2022-10-16T10:13:31;95422.31;;;28.21;22.39
27958;BME280;15295;42.658;23.374;2022-10-16T11:48:32;95410.78;;;30.16;19.88
27958;BME280;15295;42.658;23.374;2022-10-16T11:55:21;95365.13;;;29.64;20.29
27958;BME280;15295;42.658;23.374;2022-10-16T11:58:41;95362.66;;;29.09;20.36
27958;BME280;15295;42.658;23.374;2022-10-16T12:09:46;95410.09;;;29.84;19.85
27958;BME280;15295;42.658;23.374;2022-10-16T12:59:55;95421.31;;;30.15;20.28
27958;BME280;15295;42.658;23.374;2022-10-16T14:15:18;95430.25;;;26.66;23.63
27958;BME280;15295;42.658;23.374;2022-10-16T14:18:25;95415.41;;;26.36;23.49
27958;BME280;15295;42.658;23.374;2022-10-16T14:27:28;95442.88;;;25.76;23.85
27958;BME280;15295;42.658;23.374;2022-10-16T14:30:48;95421.75;;;25.42;24.20
27958;BME280;15295;42.658;23.374;2022-10-16T14:36:21;95418.47;;;25.02;23.85
27958;BME280;15295;42.658;23.374;2022-10-16T14:59:50;95408.41;;;23.77;25.69
27958;BME280;15295;42.658;23.374;2022-10-16T15:02:47;95451.66;;;23.91;25.74
27958;BME280;15295;42.658;23.374;2022-10-16T15:05:41;95411.09;;;23.41;26.12
27958;BME280;15295;42.658;23.374;2022-10-16T15:08:37;95409.00;;;23.24;26.25
27958;BME280;15295;42.658;23.374;2022-10-16T15:11:50;95461.13;;;23.36;26.85
27958;BME280;15295;42.658;23.374;2022-10-16T15:14:44;95440.88;;;23.14;26.88
27958;BME280;15295;42.658;23.374;2022-10-16T15:17:13;95464.91;;;23.20;27.22
27958;BME280;15295;42.658;23.374;2022-10-16T15:19:55;95456.31;;;23.06;26.98
27958;BME280;15295;42.658;23.374;2022-10-16T15:22:28;95426.38;;;22.66;27.26
27958;BME280;15295;42.658;23.374;2022-10-16T15:24:56;95444.75;;;22.64;27.57
27958;BME280;15295;42.658;23.374;2022-10-16T15:28:02;95410.44;;;22.33;28.49
27958;BME280;15295;42.658;23.374;2022-10-16T15:30:33;95449.13;;;22.52;27.99
27958;BME280;15295;42.658;23.374;2022-10-16T15:33:40;95487.84;;;22.72;28.11
27958;BME280;15295;42.658;23.374;2022-10-16T15:36:13;95477.97;;;22.58;28.21
27958;BME280;15295;42.658;23.374;2022-10-16T15:38:44;95433.13;;;22.22;28.29
27958;BME280;15295;42.658;23.374;2022-10-16T16:07:20;95498.38;;;21.62;29.99
27958;BME280;15295;42.658;23.374;2022-10-16T16:09:50;95466.56;;;21.25;30.64
27958;BME280;15295;42.658;23.374;2022-10-16T16:12:45;95535.22;;;21.53;30.79
27958;BME280;15295;42.658;23.374;2022-10-16T16:21:00;95470.47;;;20.61;31.07
27958;BME280;15295;42.658;23.374;2022-10-16T17:02:39;95605.00;;;19.95;34.12
27958;BME280;15295;42.658;23.374;2022-10-16T17:05:18;95592.25;;;19.82;34.35
27958;BME280;15295;42.658;23.374;2022-10-16T17:08:00;95574.09;;;19.61;34.98
27958;BME280;15295;42.658;23.374;2022-10-16T17:10:28;95592.13;;;19.53;35.04
27958;BME280;15295;42.658;23.374;2022-10-16T17:12:53;95593.16;;;19.43;35.37
27958;BME280;15295;42.658;23.374;2022-10-16T17:15:18;95590.16;;;19.34;35.82
27958;BME280;15295;42.658;23.374;2022-10-16T17:17:45;95614.78;;;19.48;35.56
27958;BME280;15295;42.658;23.374;2022-10-16T17:20:10;95611.16;;;19.35;35.65
27958;BME280;15295;42.658;23.374;2022-10-16T17:22:36;95625.00;;;19.35;35.45
27958;BME280;15295;42.658;23.374;2022-10-16T17:25:02;95619.81;;;19.37;35.80
27958;BME280;15295;42.658;23.374;2022-10-16T17:27:28;95609.19;;;19.32;35.31
27958;BME280;15295;42.658;23.374;2022-10-16T17:29:54;95624.47;;;19.20;35.31
27958;BME280;15295;42.658;23.374;2022-10-16T17:32:20;95620.16;;;19.19;35.55
27958;BME280;15295;42.658;23.374;2022-10-16T17:34:47;95603.66;;;19.12;35.18
27958;BME280;15295;42.658;23.374;2022-10-16T17:37:12;95613.13;;;19.15;35.23
27958;BME280;15295;42.658;23.374;2022-10-16T17:39:37;95627.25;;;19.20;35.16
27958;BME280;15295;42.658;23.374;2022-10-16T17:44:39;95589.81;;;18.93;35.50
27958;BME280;15295;42.658;23.374;2022-10-16T17:47:04;95590.97;;;18.95;35.54
27958;BME280;15295;42.658;23.374;2022-10-16T17:49:36;95597.19;;;18.80;35.34
27958;BME280;15295;42.658;23.374;2022-10-16T17:52:18;95630.97;;;18.94;35.37
27958;BME280;15295;42.658;23.374;2022-10-16T17:54:49;95589.31;;;18.35;35.76
27958;BME280;15295;42.658;23.374;2022-10-16T17:57:19;95606.19;;;18.44;35.45
27958;BME280;15295;42.658;23.374;2022-10-16T17:59:49;95634.66;;;18.41;35.49
27958;BME280;15295;42.658;23.374;2022-10-16T18:02:20;95621.81;;;18.08;35.90
27958;BME280;15295;42.658;23.374;2022-10-16T18:04:49;95640.81;;;18.06;36.50
27958;BME280;15295;42.658;23.374;2022-10-16T18:07:14;95631.50;;;17.70;36.59
27958;BME280;15295;42.658;23.374;2022-10-16T18:10:10;95634.34;;;17.63;37.17
27958;BME280;15295;42.658;23.374;2022-10-16T18:13:38;95593.19;;;17.42;37.13
27958;BME280;15295;42.658;23.374;2022-10-16T18:17:04;95642.03;;;17.79;37.33
27958;BME280;15295;42.658;23.374;2022-10-16T18:27:19;95636.13;;;17.77;37.25
27958;BME280;15295;42.658;23.374;2022-10-16T18:29:47;95665.53;;;17.90;37.60
27958;BME280;15295;42.658;23.374;2022-10-16T18:32:13;95647.75;;;17.91;37.19
27958;BME280;15295;42.658;23.374;2022-10-16T18:34:38;95637.22;;;17.83;37.26
27958;BME280;15295;42.658;23.374;2022-10-16T18:37:20;95652.84;;;17.96;36.84
27958;BME280;15295;42.658;23.374;2022-10-16T18:39:46;95652.44;;;17.94;37.39
27958;BME280;15295;42.658;23.374;2022-10-16T18:42:16;95639.56;;;17.84;37.47
27958;BME280;15295;42.658;23.374;2022-10-16T18:44:46;95675.78;;;17.93;37.43
27958;BME280;15295;42.658;23.374;2022-10-16T18:47:13;95676.59;;;17.90;37.44
27958;BME280;15295;42.658;23.374;2022-10-16T18:49:40;95676.50;;;17.97;37.23
27958;BME280;15295;42.658;23.374;2022-10-16T18:52:08;95662.06;;;17.86;37.01
27958;BME280;15295;42.658;23.374;2022-10-16T18:54:35;95663.00;;;17.76;37.27
27958;BME280;15295;42.658;23.374;2022-10-16T18:57:01;95684.91;;;17.90;37.34
27958;BME280;15295;42.658;23.374;2022-10-16T18:59:33;95705.78;;;17.95;37.73
27958;BME280;15295;42.658;23.374;2022-10-16T19:01:59;95684.91;;;17.90;37.54
27958;BME280;15295;42.658;23.374;2022-10-16T19:04:24;95699.00;;;17.99;37.62
27958;BME280;15295;42.658;23.374;2022-10-16T19:06:51;95712.41;;;18.01;37.64
27958;BME280;15295;42.658;23.374;2022-10-16T19:09:24;95715.59;;;17.99;37.45
27958;BME280;15295;42.658;23.374;2022-10-16T19:11:51;95715.53;;;18.03;37.32
27958;BME280;15295;42.658;23.374;2022-10-16T19:14:17;95706.88;;;18.01;37.92
27958;BME280;15295;42.658;23.374;2022-10-16T19:16:56;95718.69;;;18.05;37.75
27958;BME280;15295;42.658;23.374;2022-10-16T19:19:29;95724.25;;;18.01;37.47
27958;BME280;15295;42.658;23.374;2022-10-16T19:21:55;95725.50;;;17.97;37.62
27958;BME280;15295;42.658;23.374;2022-10-16T19:24:35;95732.25;;;17.96;38.19
27958;BME280;15295;42.658;23.374;2022-10-16T19:27:00;95706.53;;;17.68;38.24
27958;BME280;15295;42.658;23.374;2022-10-16T19:29:32;95738.81;;;17.79;38.47
27958;BME280;15295;42.658;23.374;2022-10-16T19:31:59;95741.59;;;17.75;38.32
27958;BME280;15295;42.658;23.374;2022-10-16T19:34:29;95714.97;;;17.58;38.52
27958;BME280;15295;42.658;23.374;2022-10-16T19:36:55;95717.75;;;17.58;38.60
27958;BME280;15295;42.658;23.374;2022-10-16T19:39:26;95708.41;;;17.45;38.41
27958;BME280;15295;42.658;23.374;2022-10-16T19:41:58;95722.16;;;17.18;38.73
27958;BME280;15295;42.658;23.374;2022-10-16T19:44:30;95744.78;;;17.40;38.34
27958;BME280;15295;42.658;23.374;2022-10-16T19:46:59;95707.75;;;17.00;38.88
27958;BME280;15295;42.658;23.374;2022-10-16T19:49:26;95720.81;;;16.96;38.93
27958;BME280;15295;42.658;23.374;2022-10-16T19:51:53;95716.13;;;16.89;38.94
27958;BME280;15295;42.658;23.374;2022-10-16T19:54:20;95762.59;;;17.02;39.09
27958;BME280;15295;42.658;23.374;2022-10-16T19:56:45;95730.50;;;16.74;39.50
27958;BME280;15295;42.658;23.374;2022-10-16T19:59:11;95757.97;;;16.88;39.51
27958;BME280;15295;42.658;23.374;2022-10-16T20:01:39;95765.09;;;16.85;39.63
27958;BME280;15295;42.658;23.374;2022-10-16T20:04:09;95718.09;;;16.48;39.47
27958;BME280;15295;42.658;23.374;2022-10-16T20:06:35;95723.25;;;16.46;39.71
27958;BME280;15295;42.658;23.374;2022-10-16T20:09:01;95758.88;;;16.74;39.82
27958;BME280;15295;42.658;23.374;2022-10-16T20:11:36;95759.66;;;16.78;39.59
27958;BME280;15295;42.658;23.374;2022-10-16T20:14:03;95729.88;;;16.59;39.64
27958;BME280;15295;42.658;23.374;2022-10-16T20:16:29;95740.81;;;16.70;39.81
27958;BME280;15295;42.658;23.374;2022-10-16T20:18:56;95771.06;;;16.80;39.42
27958;BME280;15295;42.658;23.374;2022-10-16T20:21:27;95766.88;;;16.65;39.99
27958;BME280;15295;42.658;23.374;2022-10-16T20:23:53;95766.88;;;16.65;39.95
27958;BME280;15295;42.658;23.374;2022-10-16T20:26:20;95753.91;;;16.59;40.12
27958;BME280;15295;42.658;23.374;2022-10-16T20:28:46;95759.81;;;16.61;40.06
27958;BME280;15295;42.658;23.374;2022-10-16T20:31:18;95774.63;;;16.77;40.11
27958;BME280;15295;42.658;23.374;2022-10-16T20:34:07;95761.72;;;16.64;40.00
27958;BME280;15295;42.658;23.374;2022-10-16T20:36:35;95747.25;;;16.49;40.06
27958;BME280;15295;42.658;23.374;2022-10-16T20:39:06;95774.13;;;16.38;40.47
27958;BME280;15295;42.658;23.374;2022-10-16T20:41:35;95786.84;;;16.25;40.69
27958;BME280;15295;42.658;23.374;2022-10-16T20:44:01;95771.53;;;16.17;40.80
27958;BME280;15295;42.658;23.374;2022-10-16T20:46:27;95771.19;;;16.11;40.95
27958;BME280;15295;42.658;23.374;2022-10-16T20:48:54;95788.88;;;16.17;40.84
27958;BME280;15295;42.658;23.374;2022-10-16T20:51:29;95778.75;;;15.97;41.50
27958;BME280;15295;42.658;23.374;2022-10-16T20:53:57;95774.00;;;16.01;41.33
27958;BME280;15295;42.658;23.374;2022-10-16T20:56:23;95780.78;;;15.86;41.48
27958;BME280;15295;42.658;23.374;2022-10-16T20:58:49;95778.50;;;15.74;42.03
27958;BME280;15295;42.658;23.374;2022-10-16T21:01:18;95783.59;;;15.75;42.22
27958;BME280;15295;42.658;23.374;2022-10-16T21:03:49;95781.16;;;15.88;41.83
27958;BME280;15295;42.658;23.374;2022-10-16T21:06:15;95777.69;;;15.73;42.10
27958;BME280;15295;42.658;23.374;2022-10-16T21:08:42;95707.75;;;15.42;41.97
27958;BME280;15295;42.658;23.374;2022-10-16T21:11:12;95760.84;;;15.61;41.98
27958;BME280;15295;42.658;23.374;2022-10-16T21:13:39;95737.28;;;15.38;42.11
27958;BME280;15295;42.658;23.374;2022-10-16T21:16:06;95775.44;;;15.54;42.21
27958;BME280;15295;42.658;23.374;2022-10-16T21:18:33;95776.31;;;15.12;43.07
27958;BME280;15295;42.658;23.374;2022-10-16T21:20:59;95745.28;;;14.94;43.17
27958;BME280;15295;42.658;23.374;2022-10-16T21:23:24;95767.66;;;15.17;43.02
27958;BME280;15295;42.658;23.374;2022-10-16T21:26:12;95777.88;;;15.13;43.07
27958;BME280;15295;42.658;23.374;2022-10-16T21:28:37;95784.19;;;15.10;43.14
27958;BME280;15295;42.658;23.374;2022-10-16T21:31:11;95766.88;;;15.13;43.05
27958;BME280;15295;42.658;23.374;2022-10-16T21:33:36;95781.03;;;15.22;42.99
27958;BME280;15295;42.658;23.374;2022-10-16T21:36:11;95786.53;;;15.08;43.06
27958;BME280;15295;42.658;23.374;2022-10-16T21:38:36;95781.44;;;15.10;43.07
27958;BME280;15295;42.658;23.374;2022-10-16T21:41:14;95768.06;;;15.09;42.96
27958;BME280;15295;42.658;23.374;2022-10-16T21:43:40;95779.00;;;15.30;42.58
27958;BME280;15295;42.658;23.374;2022-10-16T21:46:05;95795.13;;;15.31;42.61
27958;BME280;15295;42.658;23.374;2022-10-16T21:48:30;95791.19;;;15.39;42.56
27958;BME280;15295;42.658;23.374;2022-10-16T21:50:56;95791.19;;;15.39;42.43
27958;BME280;15295;42.658;23.374;2022-10-16T21:53:23;95795.94;;;15.28;42.67
27958;BME280;15295;42.658;23.374;2022-10-16T21:55:49;95786.91;;;15.17;42.47
27958;BME280;15295;42.658;23.374;2022-10-16T21:58:14;95799.91;;;15.20;42.95
27958;BME280;15295;42.658;23.374;2022-10-16T22:01:09;95815.59;;;15.37;42.47
27958;BME280;15295;42.658;23.374;2022-10-16T22:03:46;95815.59;;;15.37;42.44
27958;BME280;15295;42.658;23.374;2022-10-16T22:06:14;95804.59;;;15.27;42.44